Terminal Aerodrome Forecast
Issued by NWS Omaha/Valley, NE

Home | Current Version | Previous Version | Graphics & Text | Print | Product List | Glossary On
Versions: 1 2 3 4 5 6 7 8 9 10 11 12 13 14 15 16 17 18 19 20 21 22 23 24 25 26 27 28 29 30 31 32 33 34 35 36 37 38 39
503
FTUS43 KOAX 262326
TAFOFK
TAF
KOFK 262326Z 2700/2724 10008KT P6SM BKN250
     FM270200 11005KT P6SM VCTS BKN050CB
      TEMPO 2702/2706 3SM TSRA OVC040CB
     FM270600 13005KT 5SM BR OVC025
      TEMPO 2708/2712 3SM BR OVC015
     FM271200 08004KT 4SM BR OVC015
     FM271700 33007KT P6SM BKN050=

USA.gov is the U.S. government's official web portal to all federal, state and local government web resources and services.